createdAt,value
2017-04-13T00:00:05.530Z,6.98
2017-04-13T00:01:28.278Z,6.99
2017-04-13T00:02:50.084Z,6.89
2017-04-13T00:04:11.668Z,6.94
2017-04-13T00:05:33.508Z,6.81
2017-04-13T00:06:55.996Z,6.8
2017-04-13T00:08:17.846Z,6.87
2017-04-13T00:09:39.675Z,6.69
2017-04-13T00:11:01.928Z,6.7
2017-04-13T00:12:23.786Z,6.69
2017-04-13T00:13:46.239Z,6.52
2017-04-13T00:15:08.055Z,6.48
2017-04-13T00:16:30.523Z,6.37
2017-04-13T00:17:53.279Z,6.34
2017-04-13T00:19:15.558Z,6.19
2017-04-13T00:20:36.758Z,6.18
2017-04-13T00:21:58.274Z,6.11
2017-04-13T00:23:20.838Z,6.15
2017-04-13T00:24:42.990Z,6.03
2017-04-13T00:26:04.829Z,6.12
2017-04-13T00:27:26.365Z,6.01
2017-04-13T00:28:48.746Z,6.06
2017-04-13T00:30:10.572Z,5.93
2017-04-13T00:31:32.383Z,5.96
2017-04-13T00:32:54.665Z,6.09
2017-04-13T00:34:17.213Z,6
2017-04-13T00:38:42.970Z,5.93
2017-04-13T00:40:05.142Z,5.94
2017-04-13T00:41:26.591Z,6
2017-04-13T00:42:48.680Z,6.01
2017-04-13T00:44:10.784Z,6.03
2017-04-13T00:45:32.805Z,5.96
2017-04-13T00:46:54.648Z,5.93
2017-04-13T00:48:17.031Z,5.91
2017-04-13T00:49:39.439Z,5.82
2017-04-13T00:51:01.177Z,5.85
2017-04-13T00:52:23.017Z,5.86
2017-04-13T00:53:44.587Z,5.82
2017-04-13T00:55:06.407Z,5.89
2017-04-13T00:56:28.258Z,5.83
2017-04-13T00:57:50.090Z,5.85
2017-04-13T00:59:11.611Z,5.82
2017-04-13T01:00:34.074Z,5.82
2017-04-13T01:01:55.836Z,5.82
2017-04-13T01:03:17.348Z,5.82
2017-04-13T01:04:38.848Z,5.89
2017-04-13T01:06:00.854Z,5.91
2017-04-13T01:07:22.990Z,5.96
2017-04-13T01:08:44.849Z,6
2017-04-13T01:10:07.137Z,6
2017-04-13T01:11:29.274Z,6.09
2017-04-13T01:12:51.238Z,5.97
2017-04-13T01:14:13.382Z,6
2017-04-13T01:15:35.837Z,6.06
2017-04-13T01:16:57.706Z,6.12
2017-04-13T01:18:19.471Z,6.09
2017-04-13T01:19:41.619Z,6.14
2017-04-13T01:21:03.738Z,6.19
2017-04-13T01:22:25.875Z,6.22
2017-04-13T01:23:48.357Z,6.36
2017-04-13T01:25:10.512Z,6.44
2017-04-13T01:26:32.758Z,6.46
2017-04-13T01:27:54.721Z,6.52
2017-04-13T01:29:17.239Z,6.58
2017-04-13T01:30:39.378Z,6.62
2017-04-13T01:32:00.893Z,6.55
2017-04-13T01:33:22.448Z,6.69
2017-04-13T01:34:45.318Z,6.71
2017-04-13T01:36:07.451Z,6.66
2017-04-13T01:37:29.308Z,6.71
2017-04-13T01:38:50.510Z,6.7
2017-04-13T01:40:12.679Z,6.7
2017-04-13T01:41:34.513Z,6.67
2017-04-13T01:42:56.389Z,6.76
2017-04-13T01:44:18.828Z,6.67
2017-04-13T01:45:41.308Z,6.7
2017-04-13T01:47:03.247Z,6.73
2017-04-13T01:48:24.749Z,6.71
2017-04-13T01:49:47.048Z,6.81
2017-04-13T01:51:09.124Z,6.76
2017-04-13T01:52:31.390Z,6.79
2017-04-13T01:53:53.583Z,6.77
2017-04-13T01:55:15.744Z,6.85
2017-04-13T01:56:37.610Z,6.76
2017-04-13T01:57:59.442Z,6.84
2017-04-13T01:59:21.306Z,6.84
2017-04-13T02:00:43.198Z,6.88
2017-04-13T02:02:05.380Z,6.91
2017-04-13T02:03:27.847Z,6.92
2017-04-13T02:04:50.055Z,6.94
2017-04-13T02:06:11.938Z,7.02
2017-04-13T02:07:34.063Z,7.06
2017-04-13T02:08:55.905Z,7.03
2017-04-13T02:10:17.730Z,7.16
2017-04-13T02:11:39.908Z,7.15
2017-04-13T02:13:01.788Z,7.17
2017-04-13T02:14:23.443Z,7.17
2017-04-13T02:15:45.598Z,7.15
2017-04-13T02:17:07.749Z,7.28
2017-04-13T02:18:29.509Z,7.31
2017-04-13T02:19:51.350Z,7.3
2017-04-13T02:21:13.174Z,7.3
2017-04-13T02:22:35.311Z,7.28
2017-04-13T02:23:57.838Z,7.34
2017-04-13T02:25:19.709Z,7.31
2017-04-13T02:26:41.543Z,7.32
2017-04-13T02:28:03.726Z,7.32
2017-04-13T02:29:26.122Z,7.35
2017-04-13T02:30:47.337Z,7.35
2017-04-13T02:32:09.817Z,7.37
2017-04-13T02:33:31.657Z,7.4
2017-04-13T02:34:54.561Z,7.4
2017-04-13T02:36:16.709Z,7.42
2017-04-13T02:37:39.141Z,7.4
2017-04-13T02:39:00.958Z,7.4
2017-04-13T02:40:23.247Z,7.4
2017-04-13T02:41:45.409Z,7.34
2017-04-13T02:43:06.927Z,7.43
2017-04-13T02:44:28.425Z,7.39
2017-04-13T02:45:50.887Z,7.49
2017-04-13T02:47:13.029Z,7.4
2017-04-13T02:48:34.843Z,7.48
2017-04-13T02:49:57.076Z,7.46
2017-04-13T02:51:19.890Z,7.52
2017-04-13T02:52:42.444Z,7.48
2017-04-13T02:54:04.356Z,7.42
2017-04-13T02:55:26.180Z,7.45
2017-04-13T02:56:48.039Z,7.46
2017-04-13T02:58:10.169Z,7.48
2017-04-13T02:59:32.398Z,7.48
2017-04-13T03:00:54.210Z,7.43
2017-04-13T03:02:16.989Z,7.48
2017-04-13T03:03:39.248Z,7.53
2017-04-13T03:05:00.770Z,7.48
2017-04-13T03:06:22.660Z,7.5
2017-04-13T03:07:45.111Z,7.57
2017-04-13T03:09:07.319Z,7.45
2017-04-13T03:10:29.769Z,7.57
2017-04-13T03:11:51.603Z,7.53
2017-04-13T03:13:14.102Z,7.58
2017-04-13T03:14:36.559Z,7.52
2017-04-13T03:15:59.061Z,7.53
2017-04-13T03:17:20.899Z,7.58
2017-04-13T03:18:43.831Z,7.61
2017-04-13T03:20:06.325Z,7.6
2017-04-13T03:21:27.828Z,7.61
2017-04-13T03:22:49.656Z,7.64
2017-04-13T03:24:12.108Z,7.6
2017-04-13T03:25:33.619Z,7.57
2017-04-13T03:26:56.095Z,7.57
2017-04-13T03:28:17.981Z,7.64
2017-04-13T03:29:40.097Z,7.69
2017-04-13T03:31:02.230Z,7.72
2017-04-13T03:32:24.058Z,7.68
2017-04-13T03:33:46.529Z,7.71
2017-04-13T03:35:08.768Z,7.68
2017-04-13T03:36:30.949Z,7.55
2017-04-13T03:37:53.128Z,7.37
2017-04-13T03:39:14.629Z,7.24
2017-04-13T03:40:36.706Z,7.17
2017-04-13T03:41:58.220Z,7.12
2017-04-13T03:43:20.031Z,7.07
2017-04-13T03:44:41.556Z,6.99
2017-04-13T03:46:04.089Z,7.02
2017-04-13T03:47:25.288Z,7.03
2017-04-13T03:48:47.788Z,6.97
2017-04-13T03:50:10.014Z,7.05
2017-04-13T03:51:31.770Z,6.94
2017-04-13T03:52:53.899Z,6.98
2017-04-13T03:54:16.079Z,6.95
2017-04-13T03:55:38.548Z,6.95
2017-04-13T03:57:01.354Z,6.98
2017-04-13T03:58:23.050Z,6.99
2017-04-13T03:59:45.201Z,7.02
2017-04-13T04:01:06.408Z,6.91
2017-04-13T04:02:28.868Z,6.89
2017-04-13T04:03:51.015Z,6.84
2017-04-13T04:05:12.859Z,6.81
2017-04-13T04:06:34.377Z,6.76
2017-04-13T04:07:56.459Z,6.69
2017-04-13T04:09:17.959Z,6.73
2017-04-13T04:10:39.788Z,6.77
2017-04-13T04:12:01.639Z,6.66
2017-04-13T04:13:24.078Z,6.61
2017-04-13T04:14:46.239Z,6.7
2017-04-13T04:16:08.698Z,6.71
2017-04-13T04:17:30.197Z,6.81
2017-04-13T04:18:52.391Z,6.81
2017-04-13T04:20:14.543Z,6.8
2017-04-13T04:21:36.414Z,6.84
2017-04-13T04:22:58.120Z,6.94
2017-04-13T04:24:20.254Z,6.87
2017-04-13T04:25:42.119Z,6.88
2017-04-13T04:27:03.938Z,6.92
2017-04-13T04:28:26.079Z,6.97
2017-04-13T04:29:48.947Z,6.95
2017-04-13T04:31:11.126Z,7.03
2017-04-13T04:32:33.360Z,6.99
2017-04-13T04:33:55.799Z,6.89
2017-04-13T04:35:17.671Z,6.99
2017-04-13T04:36:39.178Z,6.95
2017-04-13T04:38:01.008Z,6.97
2017-04-13T04:39:22.828Z,6.99
2017-04-13T04:40:45.241Z,7.03
2017-04-13T04:42:06.866Z,6.99
2017-04-13T04:43:28.065Z,6.97
2017-04-13T04:44:49.251Z,7.05
2017-04-13T04:46:11.627Z,7.02
2017-04-13T04:47:33.141Z,7.1
2017-04-13T04:49:27.246Z,7.09
2017-04-13T04:50:48.792Z,7.16
2017-04-13T04:52:11.375Z,7.12
2017-04-13T04:53:33.192Z,7.12
2017-04-13T04:54:55.328Z,7.1
2017-04-13T04:56:16.821Z,7.17
2017-04-13T04:57:38.575Z,7.16
2017-04-13T04:59:00.338Z,7.15
2017-04-13T05:00:22.549Z,7.25
2017-04-13T05:01:44.722Z,7.23
2017-04-13T05:03:07.443Z,7.15
2017-04-13T05:04:29.701Z,7.16
2017-04-13T05:05:51.838Z,7.16
2017-04-13T05:07:13.424Z,7.13
2017-04-13T05:08:35.555Z,7.16
2017-04-13T05:09:57.690Z,7.06
2017-04-13T05:11:19.829Z,7.03
2017-04-13T05:12:41.964Z,7.02
2017-04-13T05:14:04.371Z,7.16
2017-04-13T05:15:26.280Z,7.17
2017-04-13T05:16:48.805Z,7.28
2017-04-13T05:18:10.638Z,7.24
2017-04-13T05:19:32.759Z,7.37
2017-04-13T05:20:54.899Z,7.24
2017-04-13T05:22:17.067Z,7.27
2017-04-13T05:23:39.197Z,7.3
2017-04-13T05:25:01.340Z,7.32
2017-04-13T05:26:23.168Z,7.35
2017-04-13T05:27:44.985Z,7.48
2017-04-13T05:29:06.809Z,7.43
2017-04-13T05:30:29.654Z,7.52
2017-04-13T05:31:51.811Z,7.58
2017-04-13T05:33:13.949Z,7.64
2017-04-13T05:34:36.307Z,7.72
2017-04-13T05:35:58.458Z,7.93
2017-04-13T05:37:20.598Z,8.11
2017-04-13T05:38:42.588Z,8.12
2017-04-13T05:40:04.104Z,8.73
2017-04-13T05:41:26.598Z,9.96
2017-04-13T05:42:48.463Z,11.32
2017-04-13T05:44:09.999Z,12.23
2017-04-13T05:45:31.965Z,12.75
2017-04-13T05:46:54.459Z,13.23
2017-04-13T05:48:16.929Z,13.96
2017-04-13T05:49:39.053Z,14.4
2017-04-13T05:51:00.630Z,14.77
2017-04-13T05:52:23.087Z,15.31
2017-04-13T05:53:44.910Z,15.54
2017-04-13T05:55:06.728Z,15.83
2017-04-13T05:56:29.002Z,16.39
2017-04-13T05:57:51.650Z,16.73
2017-04-13T05:59:13.164Z,17.14
2017-04-13T06:00:35.052Z,17.59
2017-04-13T06:01:56.889Z,17
2017-04-13T06:03:19.715Z,16.46
2017-04-13T06:04:41.612Z,15.11
2017-04-13T06:06:03.459Z,14.21
2017-04-13T06:07:24.871Z,13.45
2017-04-13T06:08:47.019Z,13.41
2017-04-13T06:10:08.890Z,14.22
2017-04-13T06:11:31.349Z,14.55
2017-04-13T06:12:53.822Z,14.68
2017-04-13T06:14:15.788Z,14.09
2017-04-13T06:15:37.377Z,13.79
2017-04-13T06:16:59.528Z,13.44
2017-04-13T06:18:21.360Z,14.03
2017-04-13T06:19:43.137Z,14.36
2017-04-13T06:21:04.987Z,14.03
2017-04-13T06:22:26.832Z,13.91
2017-04-13T06:23:49.007Z,13.44
2017-04-13T06:25:11.228Z,14.18
2017-04-13T06:26:32.738Z,15.16
2017-04-13T06:27:54.638Z,16.33
2017-04-13T06:29:16.159Z,16.78
2017-04-13T06:30:37.939Z,16.01
2017-04-13T06:31:59.818Z,15.47
2017-04-13T06:33:22.111Z,15.01
2017-04-13T06:34:43.946Z,15.17
2017-04-13T06:36:06.418Z,16.09
2017-04-13T06:37:28.018Z,16.96
2017-04-13T06:38:50.293Z,17.95
2017-04-13T06:40:11.805Z,17.87
2017-04-13T06:41:34.714Z,18.32
2017-04-13T06:42:57.015Z,18.36
2017-04-13T06:44:19.051Z,18.9
2017-04-13T06:45:40.908Z,19.28
2017-04-13T06:47:03.098Z,20.08
2017-04-13T06:48:25.308Z,19.36
2017-04-13T06:49:46.826Z,18.99
2017-04-13T06:51:09.169Z,18.21
2017-04-13T06:52:31.354Z,18.11
2017-04-13T06:53:53.187Z,18.84
2017-04-13T06:55:15.677Z,18.21
2017-04-13T06:56:37.238Z,18.82
2017-04-13T06:57:59.656Z,19.16
2017-04-13T06:59:21.508Z,19.76
2017-04-13T07:00:43.404Z,19.88
2017-04-13T07:02:04.930Z,20.52
2017-04-13T07:03:26.950Z,20.84
2017-04-13T07:04:49.129Z,20.58
2017-04-13T07:06:10.967Z,20.42
2017-04-13T07:07:31.886Z,18.44
2017-04-13T07:08:53.974Z,17.48
2017-04-13T07:10:16.453Z,17.92
2017-04-13T07:11:38.363Z,18.87
2017-04-13T07:13:00.854Z,19.43
2017-04-13T07:14:23.257Z,19.98
2017-04-13T07:15:45.244Z,19.04
2017-04-13T07:17:07.382Z,17.51
2017-04-13T07:18:28.944Z,16.98
2017-04-13T07:19:51.338Z,16.35
2017-04-13T07:21:13.837Z,15.46
2017-04-13T07:22:35.689Z,15.17
2017-04-13T07:23:57.540Z,15.75
2017-04-13T07:25:19.677Z,16.42
2017-04-13T07:26:41.852Z,17.59
2017-04-13T07:28:04.142Z,17.37
2017-04-13T07:29:25.995Z,18.26
2017-04-13T07:30:48.127Z,18.08
2017-04-13T07:32:09.336Z,17.26
2017-04-13T07:33:31.250Z,16.43
2017-04-13T07:34:52.458Z,15.68
2017-04-13T07:36:14.480Z,14.69
2017-04-13T07:37:36.356Z,13.82
2017-04-13T07:38:58.839Z,13.14
2017-04-13T07:40:21.319Z,12.56
2017-04-13T07:41:43.129Z,12.41
2017-04-13T07:43:05.298Z,12.34
2017-04-13T07:44:27.138Z,12.56
2017-04-13T07:45:49.633Z,12.78
2017-04-13T07:47:11.813Z,13.08
2017-04-13T07:48:33.969Z,13.19
2017-04-13T07:49:56.457Z,13.19
2017-04-13T07:51:18.316Z,14.03
2017-04-13T07:52:39.756Z,14.14
2017-04-13T07:54:01.043Z,13.97
2017-04-13T07:55:23.640Z,13.75
2017-04-13T07:56:45.187Z,13.52
2017-04-13T07:58:07.099Z,13.39
2017-04-13T07:59:29.046Z,12.89
2017-04-13T08:00:51.108Z,12.37
2017-04-13T08:02:12.940Z,11.83
2017-04-13T08:03:35.647Z,11.54
2017-04-13T08:04:57.827Z,11.52
2017-04-13T08:06:19.977Z,11.44
2017-04-13T08:07:42.467Z,11.35
2017-04-13T08:09:04.546Z,11.33
2017-04-13T08:10:26.907Z,11.17
2017-04-13T08:11:49.039Z,11.03
2017-04-13T08:13:10.879Z,10.91
2017-04-13T08:14:33.426Z,10.89
2017-04-13T08:15:54.950Z,10.81
2017-04-13T08:17:17.308Z,10.68
2017-04-13T08:18:39.779Z,10.71
2017-04-13T08:20:02.251Z,10.81
2017-04-13T08:21:24.095Z,10.91
2017-04-13T08:22:46.017Z,11.14
2017-04-13T08:24:08.195Z,11.58
2017-04-13T08:25:30.696Z,11.94
2017-04-13T08:26:52.518Z,12.24
2017-04-13T08:28:14.667Z,12.52
2017-04-13T08:29:36.973Z,12.75
2017-04-13T08:30:59.609Z,12.97
2017-04-13T08:32:21.569Z,13.04
2017-04-13T08:33:43.722Z,13.32
2017-04-13T08:35:05.721Z,13.46
2017-04-13T08:36:27.583Z,13.36
2017-04-13T08:37:49.475Z,13.19
2017-04-13T08:39:11.655Z,13.08
2017-04-13T08:40:33.322Z,13.08
2017-04-13T08:41:55.893Z,12.95
2017-04-13T08:43:18.053Z,13.14
2017-04-13T08:44:40.260Z,13.08
2017-04-13T08:46:02.435Z,12.92
2017-04-13T08:47:24.517Z,12.86
2017-04-13T08:48:46.935Z,12.79
2017-04-13T08:50:09.447Z,12.74
2017-04-13T08:51:31.286Z,12.53
2017-04-13T08:52:53.153Z,12.5
2017-04-13T08:54:14.978Z,12.52
2017-04-13T08:55:36.996Z,12.52
2017-04-13T08:56:59.213Z,12.47
2017-04-13T08:58:21.967Z,12.54
2017-04-13T08:59:44.116Z,12.71
2017-04-13T09:01:06.336Z,12.72
2017-04-13T09:02:28.536Z,12.85
2017-04-13T09:03:51.034Z,13.05
2017-04-13T09:05:12.903Z,13.15
2017-04-13T09:06:34.757Z,13.51
2017-04-13T09:07:56.639Z,13.64
2017-04-13T09:09:18.876Z,13.84
2017-04-13T09:10:40.719Z,13.87
2017-04-13T09:12:02.874Z,13.89
2017-04-13T09:13:25.042Z,13.96
2017-04-13T09:14:46.706Z,13.6
2017-04-13T09:16:08.577Z,13.59
2017-04-13T09:17:30.275Z,13.95
2017-04-13T09:18:51.806Z,14.39
2017-04-13T09:20:14.408Z,14.35
2017-04-13T09:21:35.959Z,14.35
2017-04-13T09:22:58.420Z,14.04
2017-04-13T09:24:20.276Z,13.6
2017-04-13T09:25:42.413Z,13.33
2017-04-13T09:27:04.232Z,12.59
2017-04-13T09:28:25.748Z,12.34
2017-04-13T09:29:47.265Z,12.31
2017-04-13T09:31:09.877Z,12.34
2017-04-13T09:32:32.022Z,12.37
2017-04-13T09:33:53.851Z,12.53
2017-04-13T09:35:15.368Z,12.47
2017-04-13T09:36:37.479Z,12.49
2017-04-13T09:37:59.643Z,12.54
2017-04-13T09:39:21.880Z,12.79
2017-04-13T09:40:43.829Z,12.62
2017-04-13T09:42:06.636Z,12.57
2017-04-13T09:43:28.807Z,12.77
2017-04-13T09:44:50.676Z,13.26
2017-04-13T09:46:12.830Z,13.79
2017-04-13T09:47:35.506Z,14.21
2017-04-13T09:48:57.447Z,14.36
2017-04-13T09:50:19.608Z,14.52
2017-04-13T09:51:42.117Z,14.69
2017-04-13T09:53:04.727Z,14.92
2017-04-13T09:54:26.701Z,14.37
2017-04-13T09:55:49.024Z,14.17
2017-04-13T09:57:10.853Z,13.52
2017-04-13T09:58:33.378Z,13.26
2017-04-13T09:59:55.516Z,13
2017-04-13T10:01:17.342Z,12.59
2017-04-13T10:02:39.506Z,12.23
2017-04-13T10:04:01.649Z,12.02
2017-04-13T10:05:24.129Z,11.78
2017-04-13T10:06:45.961Z,11.96
2017-04-13T10:08:08.113Z,11.99
2017-04-13T10:09:30.324Z,12.12
2017-04-13T10:10:52.158Z,12.13
2017-04-13T10:12:14.316Z,12.16
2017-04-13T10:13:36.803Z,12.38
2017-04-13T10:14:58.375Z,12.54
2017-04-13T10:16:20.526Z,12.5
2017-04-13T10:17:42.451Z,12.57
2017-04-13T10:19:04.974Z,12.7
2017-04-13T10:20:27.430Z,12.87
2017-04-13T10:21:49.616Z,13.42
2017-04-13T10:23:11.446Z,13.62
2017-04-13T10:24:33.678Z,13.82
2017-04-13T10:25:55.860Z,14.12
2017-04-13T10:27:18.068Z,14.52
2017-04-13T10:28:39.909Z,14.57
2017-04-13T10:30:02.360Z,14.43
2017-04-13T10:31:25.104Z,14.27
2017-04-13T10:32:47.288Z,14.32
2017-04-13T10:34:09.112Z,14.02
2017-04-13T10:35:31.332Z,13.87
2017-04-13T10:36:53.435Z,13.92
2017-04-13T10:38:15.576Z,14.12
2017-04-13T10:39:37.450Z,14.36
2017-04-13T10:40:59.304Z,14.5
2017-04-13T10:42:21.787Z,14.7
2017-04-13T10:43:43.623Z,14.46
2017-04-13T10:45:05.456Z,13.99
2017-04-13T10:46:27.273Z,13.45
2017-04-13T10:47:49.913Z,12.9
2017-04-13T10:49:12.076Z,12.52
2017-04-13T10:50:33.752Z,12.31
2017-04-13T10:51:56.236Z,12.31
2017-04-13T10:53:18.095Z,12.54
2017-04-13T10:54:40.250Z,12.92
2017-04-13T10:56:01.947Z,13.05
2017-04-13T10:57:24.117Z,13.08
2017-04-13T10:58:46.238Z,13.19
2017-04-13T11:00:08.397Z,13.32
2017-04-13T11:01:30.587Z,13.39
2017-04-13T11:02:52.457Z,13.54
2017-04-13T11:04:14.922Z,13.75
2017-04-13T11:05:36.766Z,13.73
2017-04-13T11:06:58.599Z,13.63
2017-04-13T11:08:20.529Z,13.45
2017-04-13T11:09:43.306Z,13.46
2017-04-13T11:11:05.563Z,13.54
2017-04-13T11:12:27.436Z,13.49
2017-04-13T11:13:48.652Z,13.63
2017-04-13T11:15:11.077Z,13.81
2017-04-13T11:16:32.937Z,13.99
2017-04-13T11:17:55.102Z,13.88
2017-04-13T11:19:17.603Z,13.54
2017-04-13T11:20:39.587Z,12.9
2017-04-13T11:22:01.776Z,12.49
2017-04-13T11:23:23.606Z,12.01
2017-04-13T11:24:45.847Z,11.76
2017-04-13T11:26:08.358Z,11.6
2017-04-13T11:27:30.847Z,11.88
2017-04-13T11:28:52.677Z,12.13
2017-04-13T11:30:15.153Z,12.46
2017-04-13T11:31:37.577Z,12.67
2017-04-13T11:32:59.419Z,13.12
2017-04-13T11:34:21.894Z,13.32
2017-04-13T11:35:43.724Z,13.54
2017-04-13T11:37:06.637Z,13.79
2017-04-13T11:38:28.467Z,14.06
2017-04-13T11:39:50.967Z,13.96
2017-04-13T11:41:13.205Z,13.97
2017-04-13T11:42:35.445Z,13.62
2017-04-13T11:43:58.184Z,12.87
2017-04-13T11:45:20.038Z,13
2017-04-13T11:46:42.206Z,12.29
2017-04-13T11:48:04.642Z,12.35
2017-04-13T11:49:27.104Z,12.77
2017-04-13T11:50:48.728Z,13.17
2017-04-13T11:52:10.575Z,13.69
2017-04-13T11:53:32.704Z,13.78
2017-04-13T11:54:54.975Z,13.71
2017-04-13T11:56:17.522Z,13.51
2017-04-13T11:57:40.007Z,13.7
2017-04-13T11:59:02.476Z,13.66
2017-04-13T12:00:25.035Z,13.79
2017-04-13T12:01:47.235Z,13.88
2017-04-13T12:03:09.400Z,13.73
2017-04-13T12:04:31.607Z,13.45
2017-04-13T12:05:53.793Z,13.15
2017-04-13T12:07:16.255Z,13.26
2017-04-13T12:08:38.726Z,13.1
2017-04-13T12:10:01.243Z,12.72
2017-04-13T12:11:23.404Z,12.5
2017-04-13T12:12:45.580Z,12.37
2017-04-13T12:14:08.081Z,12.32
2017-04-13T12:15:30.608Z,12.41
2017-04-13T12:16:53.111Z,12.74
2017-04-13T12:18:15.616Z,13.3
2017-04-13T12:19:37.467Z,13.82
2017-04-13T12:20:59.937Z,14.03
2017-04-13T12:22:21.767Z,14.2
2017-04-13T12:23:43.947Z,14.17
2017-04-13T12:25:06.206Z,14.12
2017-04-13T12:26:27.798Z,13.99
2017-04-13T12:27:49.636Z,13.51
2017-04-13T12:29:11.798Z,12.78
2017-04-13T12:30:33.544Z,12.32
2017-04-13T12:31:55.949Z,12.13
2017-04-13T12:33:18.113Z,11.69
2017-04-13T12:34:39.969Z,11.54
2017-04-13T12:36:02.155Z,11.32
2017-04-13T12:37:24.882Z,11.18
2017-04-13T12:38:47.049Z,11.17
2017-04-13T12:40:09.257Z,11.32
2017-04-13T12:41:31.813Z,11.57
2017-04-13T12:42:53.957Z,11.76
2017-04-13T12:44:16.100Z,11.64
2017-04-13T12:45:37.967Z,11.76
2017-04-13T12:47:00.110Z,11.72
2017-04-13T12:48:22.896Z,11.73
2017-04-13T12:49:45.085Z,11.8
2017-04-13T12:51:06.942Z,11.9
2017-04-13T12:52:29.207Z,12.02
2017-04-13T12:53:51.712Z,12.04
2017-04-13T12:55:13.556Z,12.14
2017-04-13T12:56:35.465Z,12.21
2017-04-13T12:57:57.967Z,12.37
2017-04-13T12:59:20.787Z,12.35
2017-04-13T13:00:42.627Z,12.29
2017-04-13T13:02:04.468Z,12.28
2017-04-13T13:03:26.358Z,12.52
2017-04-13T13:04:48.767Z,12.72
2017-04-13T13:06:11.024Z,12.85
2017-04-13T13:07:32.856Z,12.89
2017-04-13T13:08:55.316Z,12.64
2017-04-13T13:10:17.477Z,12.77
2017-04-13T13:11:39.308Z,12.7
2017-04-13T13:13:01.139Z,12.79
2017-04-13T13:14:23.608Z,12.87
2017-04-13T13:15:45.579Z,13.05
2017-04-13T13:17:07.747Z,13.38
2017-04-13T13:18:29.948Z,13.46
2017-04-13T13:19:51.850Z,13.87
2017-04-13T13:21:14.351Z,13.99
2017-04-13T13:22:36.839Z,13.97
2017-04-13T13:23:58.669Z,13.62
2017-04-13T13:25:20.804Z,13.44
2017-04-13T13:26:43.539Z,13.48
2017-04-13T13:28:05.713Z,13.44
2017-04-13T13:29:27.238Z,13.42
2017-04-13T13:30:49.079Z,13.54
2017-04-13T13:32:11.198Z,13.69
2017-04-13T13:33:33.474Z,13.78
2017-04-13T13:34:55.950Z,13.6
2017-04-13T13:36:17.779Z,13.38
2017-04-13T13:37:40.248Z,13.39
2017-04-13T13:39:02.208Z,13.08
2017-04-13T13:40:24.377Z,12.77
2017-04-13T13:41:46.537Z,12.59
2017-04-13T13:43:09.079Z,12.42
2017-04-13T13:44:31.262Z,12.23
2017-04-13T13:45:52.921Z,12.27
2017-04-13T13:47:15.095Z,12.31
2017-04-13T13:48:37.290Z,12.27
2017-04-13T13:49:59.438Z,12.32
2017-04-13T13:51:21.699Z,12.32
2017-04-13T13:52:43.570Z,12.39
2017-04-13T13:54:06.067Z,12.53
2017-04-13T13:55:28.288Z,12.59
2017-04-13T13:56:50.136Z,12.57
2017-04-13T13:58:12.302Z,12.57
2017-04-13T13:59:34.389Z,12.85
2017-04-13T14:00:56.533Z,12.6
2017-04-13T14:02:18.688Z,12.64
2017-04-13T14:03:41.267Z,12.72
2017-04-13T14:05:03.660Z,12.86
2017-04-13T14:06:25.561Z,12.72
2017-04-13T14:07:48.019Z,12.7
2017-04-13T14:09:10.336Z,12.72
2017-04-13T14:10:32.487Z,12.59
2017-04-13T14:11:54.964Z,12.57
2017-04-13T14:13:16.500Z,12.71
2017-04-13T14:14:38.657Z,12.78
2017-04-13T14:16:01.447Z,12.92
2017-04-13T14:17:22.959Z,13.05
2017-04-13T14:18:45.442Z,13.19
2017-04-13T14:20:07.281Z,13.28
2017-04-13T14:21:29.407Z,13.32
2017-04-13T14:22:51.586Z,13.48
2017-04-13T14:24:14.103Z,13.54
2017-04-13T14:25:36.250Z,13.46
2017-04-13T14:26:58.536Z,13.51
2017-04-13T14:28:20.065Z,13.67
2017-04-13T14:29:41.598Z,13.77
2017-04-13T14:31:03.466Z,13.6
2017-04-13T14:32:25.657Z,13.36
2017-04-13T14:33:47.507Z,13.3
2017-04-13T14:35:09.373Z,13.42
2017-04-13T14:36:31.518Z,13.62
2017-04-13T14:37:53.985Z,13.54
2017-04-13T14:39:16.159Z,13.28
2017-04-13T14:40:38.010Z,13.17
2017-04-13T14:41:59.850Z,13.08
2017-04-13T14:43:22.338Z,13.03
2017-04-13T14:44:43.928Z,13.03
2017-04-13T14:46:06.418Z,12.86
2017-04-13T14:47:28.909Z,12.71
2017-04-13T14:48:51.114Z,12.57
2017-04-13T14:50:13.779Z,12.7
2017-04-13T14:51:36.240Z,12.79
2017-04-13T14:52:58.396Z,12.79
2017-04-13T14:54:19.980Z,12.71
2017-04-13T14:55:42.275Z,12.83
2017-04-13T14:57:04.255Z,12.78
2017-04-13T14:58:26.096Z,12.9
2017-04-13T14:59:47.879Z,12.62
2017-04-13T15:01:10.094Z,12.53
2017-04-13T15:02:31.946Z,12.42
2017-04-13T15:03:54.098Z,12.41
2017-04-13T15:05:15.987Z,12.29
2017-04-13T15:06:38.479Z,12.16
2017-04-13T15:08:00.659Z,12.07
2017-04-13T15:09:23.124Z,11.9
2017-04-13T15:10:45.533Z,11.9
2017-04-13T15:12:08.106Z,11.78
2017-04-13T15:13:30.580Z,11.64
2017-04-13T15:14:53.096Z,11.44
2017-04-13T15:16:15.828Z,11.37
2017-04-13T15:17:37.990Z,11.4
2017-04-13T15:19:00.474Z,11.37
2017-04-13T15:20:22.355Z,11.35
2017-04-13T15:21:45.124Z,11.62
2017-04-13T15:23:07.300Z,11.79
2017-04-13T15:24:29.864Z,12.02
2017-04-13T15:25:52.013Z,12.12
2017-04-13T15:27:14.137Z,12.12
2017-04-13T15:28:35.347Z,12.14
2017-04-13T15:29:57.616Z,12.13
2017-04-13T15:31:19.902Z,12.01
2017-04-13T15:32:42.668Z,11.99
2017-04-13T15:34:05.137Z,12.01
2017-04-13T15:35:27.006Z,12.04
2017-04-13T15:36:48.556Z,12.05
2017-04-13T15:38:10.758Z,12.01
2017-04-13T15:39:32.598Z,12.01
2017-04-13T15:40:54.127Z,12.13
2017-04-13T15:42:16.622Z,12.01
2017-04-13T15:43:38.794Z,11.91
2017-04-13T15:45:00.955Z,11.82
2017-04-13T15:46:22.794Z,11.69
2017-04-13T15:47:44.950Z,11.44
2017-04-13T15:49:07.477Z,11.35
2017-04-13T15:50:30.279Z,11.29
2017-04-13T15:51:52.428Z,11.09
2017-04-13T15:53:14.613Z,11.11
2017-04-13T15:54:37.045Z,11.04
2017-04-13T15:55:58.927Z,11.17
2017-04-13T15:57:21.090Z,11.21
2017-04-13T15:58:42.938Z,11.15
2017-04-13T16:00:05.456Z,10.88
2017-04-13T16:01:27.611Z,10.7
2017-04-13T16:02:49.767Z,10.74
2017-04-13T16:04:11.637Z,10.73
2017-04-13T16:05:33.419Z,10.79
2017-04-13T16:06:55.896Z,10.85
2017-04-13T16:08:18.418Z,10.73
2017-04-13T16:09:40.609Z,10.73
2017-04-13T16:11:03.339Z,10.68
2017-04-13T16:12:25.850Z,10.78
2017-04-13T16:13:47.998Z,10.79
2017-04-13T16:15:10.507Z,10.73
2017-04-13T16:16:32.937Z,10.79
2017-04-13T16:17:55.099Z,10.79
2017-04-13T16:19:17.485Z,10.91
2017-04-13T16:20:40.012Z,10.97
2017-04-13T16:22:02.155Z,10.91
2017-04-13T16:23:24.314Z,10.88
2017-04-13T16:24:46.785Z,10.88
2017-04-13T16:26:09.255Z,10.79
2017-04-13T16:27:31.975Z,10.78
2017-04-13T16:28:54.130Z,10.84
2017-04-13T16:30:16.289Z,10.86
2017-04-13T16:31:38.450Z,10.91
2017-04-13T16:33:00.938Z,10.91
2017-04-13T16:34:23.095Z,10.96
2017-04-13T16:35:45.605Z,10.82
2017-04-13T16:37:07.120Z,10.78
2017-04-13T16:38:29.529Z,10.74
2017-04-13T16:39:52.052Z,10.78
2017-04-13T16:41:14.554Z,10.86
2017-04-13T16:42:37.036Z,10.89
2017-04-13T16:43:59.904Z,11.11
2017-04-13T16:45:22.067Z,11.14
2017-04-13T16:46:44.545Z,11.18
2017-04-13T16:48:06.737Z,11.11
2017-04-13T16:49:29.486Z,11.14
2017-04-13T16:50:51.640Z,11.15
2017-04-13T16:52:13.929Z,11.07
2017-04-13T16:53:36.087Z,10.89
2017-04-13T16:54:58.518Z,10.89
2017-04-13T16:56:20.687Z,10.74
2017-04-13T16:57:42.559Z,10.68
2017-04-13T16:59:04.729Z,10.76
2017-04-13T17:00:27.172Z,10.68
2017-04-13T17:01:49.028Z,10.67
2017-04-13T17:03:10.937Z,10.56
2017-04-13T17:04:33.167Z,10.51
2017-04-13T17:05:54.628Z,10.44
2017-04-13T17:07:17.099Z,10.45
2017-04-13T17:08:38.708Z,10.32
2017-04-13T17:10:00.884Z,10.33
2017-04-13T17:11:23.101Z,10.41
2017-04-13T17:12:45.599Z,10.27
2017-04-13T17:14:07.755Z,10.14
2017-04-13T17:15:30.248Z,10.15
2017-04-13T17:16:52.745Z,10.15
2017-04-13T17:18:15.338Z,10.09
2017-04-13T17:19:37.323Z,10.12
2017-04-13T17:20:59.881Z,10.25
2017-04-13T17:22:22.467Z,10.3
2017-04-13T17:23:44.006Z,10.3
2017-04-13T17:25:06.155Z,10.29
2017-04-13T17:26:28.027Z,10.33
2017-04-13T17:27:50.205Z,10.29
2017-04-13T17:29:12.688Z,10.36
2017-04-13T17:30:34.869Z,10.27
2017-04-13T17:31:56.730Z,10.32
2017-04-13T17:33:18.827Z,10.22
2017-04-13T17:34:41.049Z,10.09
2017-04-13T17:36:02.575Z,9.99
2017-04-13T17:37:25.091Z,9.89
2017-04-13T17:38:47.828Z,9.84
2017-04-13T17:40:10.020Z,9.71
2017-04-13T17:41:32.510Z,9.64
2017-04-13T17:42:54.979Z,9.61
2017-04-13T17:44:16.767Z,9.53
2017-04-13T17:45:39.290Z,9.4
2017-04-13T17:47:01.596Z,9.33
2017-04-13T17:48:24.092Z,9.21
2017-04-13T17:49:46.599Z,9.29
2017-04-13T17:51:08.757Z,9.15
2017-04-13T17:52:30.909Z,9.01
2017-04-13T17:53:53.562Z,9.02
2017-04-13T17:55:16.285Z,8.92